sensor_id;sensor_type;location;lat;lon;timestamp;temperature;humidity
41262;DHT22;29629;52.532;13.352;2023-03-05T00:00:12;4.30;99.90
41262;DHT22;29629;52.532;13.352;2023-03-05T00:02:39;4.30;99.90
41262;DHT22;29629;52.532;13.352;2023-03-05T00:05:08;4.10;99.90
41262;DHT22;29629;52.532;13.352;2023-03-05T00:07:35;3.90;99.90
41262;DHT22;29629;52.532;13.352;2023-03-05T00:10:02;4.00;99.90
41262;DHT22;29629;52.532;13.352;2023-03-05T00:12:29;4.00;99.90
41262;DHT22;29629;52.532;13.352;2023-03-05T00:14:56;4.00;99.90
41262;DHT22;29629;52.532;13.352;2023-03-05T00:17:23;3.90;99.90
41262;DHT22;29629;52.532;13.352;2023-03-05T00:19:50;3.90;99.90
41262;DHT22;29629;52.532;13.352;2023-03-05T00:22:18;3.80;99.90
41262;DHT22;29629;52.532;13.352;2023-03-05T00:24:45;3.80;99.90
41262;DHT22;29629;52.532;13.352;2023-03-05T00:27:12;3.80;99.90
41262;DHT22;29629;52.532;13.352;2023-03-05T00:29:39;3.90;99.90
41262;DHT22;29629;52.532;13.352;2023-03-05T00:32:06;3.80;99.90
41262;DHT22;29629;52.532;13.352;2023-03-05T00:34:32;3.80;99.90
41262;DHT22;29629;52.532;13.352;2023-03-05T00:37:00;3.80;99.90
41262;DHT22;29629;52.532;13.352;2023-03-05T00:39:29;3.70;99.90
41262;DHT22;29629;52.532;13.352;2023-03-05T00:41:55;3.70;99.90
41262;DHT22;29629;52.532;13.352;2023-03-05T00:44:22;3.80;99.90
41262;DHT22;29629;52.532;13.352;2023-03-05T00:46:49;3.70;99.90
41262;DHT22;29629;52.532;13.352;2023-03-05T00:49:16;3.70;99.90
41262;DHT22;29629;52.532;13.352;2023-03-05T00:51:43;3.60;99.90
41262;DHT22;29629;52.532;13.352;2023-03-05T00:54:09;3.70;99.90
41262;DHT22;29629;52.532;13.352;2023-03-05T00:56:37;3.60;99.90
41262;DHT22;29629;52.532;13.352;2023-03-05T00:59:04;3.60;99.90
41262;DHT22;29629;52.532;13.352;2023-03-05T01:01:31;3.80;99.90
41262;DHT22;29629;52.532;13.352;2023-03-05T01:03:58;3.70;99.90
41262;DHT22;29629;52.532;13.352;2023-03-05T01:06:25;3.70;99.90
41262;DHT22;29629;52.532;13.352;2023-03-05T01:08:52;3.70;99.90
41262;DHT22;29629;52.532;13.352;2023-03-05T01:11:20;3.70;99.90
41262;DHT22;29629;52.532;13.352;2023-03-05T01:13:49;3.80;99.90
41262;DHT22;29629;52.532;13.352;2023-03-05T01:16:15;3.80;99.90
41262;DHT22;29629;52.532;13.352;2023-03-05T01:18:42;3.80;99.90
41262;DHT22;29629;52.532;13.352;2023-03-05T01:21:09;3.80;99.90
41262;DHT22;29629;52.532;13.352;2023-03-05T01:23:36;3.70;99.90
41262;DHT22;29629;52.532;13.352;2023-03-05T01:26:03;3.70;99.90
41262;DHT22;29629;52.532;13.352;2023-03-05T01:28:30;3.60;99.90
41262;DHT22;29629;52.532;13.352;2023-03-05T01:30:59;3.80;99.90
41262;DHT22;29629;52.532;13.352;2023-03-05T01:33:26;3.50;99.90
41262;DHT22;29629;52.532;13.352;2023-03-05T01:35:52;3.60;99.90
41262;DHT22;29629;52.532;13.352;2023-03-05T01:38:19;3.60;99.90
41262;DHT22;29629;52.532;13.352;2023-03-05T01:40:46;3.40;99.90
41262;DHT22;29629;52.532;13.352;2023-03-05T01:43:21;3.50;99.90
41262;DHT22;29629;52.532;13.352;2023-03-05T01:48:35;3.50;99.90
41262;DHT22;29629;52.532;13.352;2023-03-05T01:51:02;3.50;99.90
41262;DHT22;29629;52.532;13.352;2023-03-05T01:53:29;3.40;99.90
41262;DHT22;29629;52.532;13.352;2023-03-05T01:55:56;3.50;99.90
41262;DHT22;29629;52.532;13.352;2023-03-05T01:58:23;3.50;99.90
41262;DHT22;29629;52.532;13.352;2023-03-05T02:00:51;3.40;99.90
41262;DHT22;29629;52.532;13.352;2023-03-05T02:03:18;3.30;99.90
41262;DHT22;29629;52.532;13.352;2023-03-05T02:05:47;3.30;99.90
41262;DHT22;29629;52.532;13.352;2023-03-05T02:08:14;3.40;99.90
41262;DHT22;29629;52.532;13.352;2023-03-05T02:10:42;3.20;99.90
41262;DHT22;29629;52.532;13.352;2023-03-05T02:13:10;3.30;99.90
41262;DHT22;29629;52.532;13.352;2023-03-05T02:15:37;3.30;99.90
41262;DHT22;29629;52.532;13.352;2023-03-05T02:18:04;3.30;99.90
41262;DHT22;29629;52.532;13.352;2023-03-05T02:20:41;3.30;99.90
41262;DHT22;29629;52.532;13.352;2023-03-05T02:23:10;3.20;99.90
41262;DHT22;29629;52.532;13.352;2023-03-05T02:25:37;3.30;99.90
41262;DHT22;29629;52.532;13.352;2023-03-05T02:28:04;3.30;99.90
41262;DHT22;29629;52.532;13.352;2023-03-05T02:30:32;3.20;99.90
41262;DHT22;29629;52.532;13.352;2023-03-05T02:32:59;3.20;99.90
41262;DHT22;29629;52.532;13.352;2023-03-05T02:35:26;3.20;99.90
41262;DHT22;29629;52.532;13.352;2023-03-05T02:37:53;3.20;99.90
41262;DHT22;29629;52.532;13.352;2023-03-05T02:40:21;3.20;99.90
41262;DHT22;29629;52.532;13.352;2023-03-05T02:42:48;3.20;99.90
41262;DHT22;29629;52.532;13.352;2023-03-05T02:45:15;3.20;99.90
41262;DHT22;29629;52.532;13.352;2023-03-05T02:47:41;3.10;99.90
41262;DHT22;29629;52.532;13.352;2023-03-05T02:50:08;3.10;99.90
41262;DHT22;29629;52.532;13.352;2023-03-05T02:52:35;3.20;99.90
41262;DHT22;29629;52.532;13.352;2023-03-05T02:55:03;3.10;99.90
41262;DHT22;29629;52.532;13.352;2023-03-05T02:57:31;3.20;99.90
41262;DHT22;29629;52.532;13.352;2023-03-05T02:59:58;3.10;99.90
41262;DHT22;29629;52.532;13.352;2023-03-05T03:02:24;3.30;99.90
41262;DHT22;29629;52.532;13.352;2023-03-05T03:04:51;3.20;99.90
41262;DHT22;29629;52.532;13.352;2023-03-05T03:07:18;3.20;99.90
41262;DHT22;29629;52.532;13.352;2023-03-05T03:09:45;3.20;99.90
41262;DHT22;29629;52.532;13.352;2023-03-05T03:12:12;3.20;99.90
41262;DHT22;29629;52.532;13.352;2023-03-05T03:14:40;3.20;99.90
41262;DHT22;29629;52.532;13.352;2023-03-05T03:17:08;3.30;99.90
41262;DHT22;29629;52.532;13.352;2023-03-05T03:19:35;3.20;99.90
41262;DHT22;29629;52.532;13.352;2023-03-05T03:22:02;3.20;99.90
41262;DHT22;29629;52.532;13.352;2023-03-05T03:24:28;3.10;99.90
41262;DHT22;29629;52.532;13.352;2023-03-05T03:26:55;3.20;99.90
41262;DHT22;29629;52.532;13.352;2023-03-05T03:29:22;3.20;99.90
41262;DHT22;29629;52.532;13.352;2023-03-05T03:31:50;3.10;99.90
41262;DHT22;29629;52.532;13.352;2023-03-05T03:34:17;3.10;99.90
41262;DHT22;29629;52.532;13.352;2023-03-05T03:36:45;3.10;99.90
41262;DHT22;29629;52.532;13.352;2023-03-05T03:39:12;3.10;99.90
41262;DHT22;29629;52.532;13.352;2023-03-05T03:41:40;3.00;99.90
41262;DHT22;29629;52.532;13.352;2023-03-05T03:44:07;3.00;99.90
41262;DHT22;29629;52.532;13.352;2023-03-05T03:46:35;3.10;99.90
41262;DHT22;29629;52.532;13.352;2023-03-05T03:49:03;2.90;99.90
41262;DHT22;29629;52.532;13.352;2023-03-05T03:51:30;3.00;99.90
41262;DHT22;29629;52.532;13.352;2023-03-05T03:53:57;3.00;99.90
41262;DHT22;29629;52.532;13.352;2023-03-05T03:56:24;3.00;99.90
41262;DHT22;29629;52.532;13.352;2023-03-05T03:58:51;3.10;99.90
41262;DHT22;29629;52.532;13.352;2023-03-05T04:01:18;3.00;99.90
41262;DHT22;29629;52.532;13.352;2023-03-05T04:03:44;2.90;99.90
41262;DHT22;29629;52.532;13.352;2023-03-05T04:06:13;2.90;99.90
41262;DHT22;29629;52.532;13.352;2023-03-05T04:08:39;2.80;99.90
41262;DHT22;29629;52.532;13.352;2023-03-05T04:11:08;2.70;99.90
41262;DHT22;29629;52.532;13.352;2023-03-05T04:13:34;2.70;99.90
41262;DHT22;29629;52.532;13.352;2023-03-05T04:16:01;2.70;99.90
41262;DHT22;29629;52.532;13.352;2023-03-05T04:18:28;2.70;99.90
41262;DHT22;29629;52.532;13.352;2023-03-05T04:20:55;2.60;99.90
41262;DHT22;29629;52.532;13.352;2023-03-05T04:23:23;2.60;99.90
41262;DHT22;29629;52.532;13.352;2023-03-05T04:25:49;2.60;99.90
41262;DHT22;29629;52.532;13.352;2023-03-05T04:28:16;2.60;99.90
41262;DHT22;29629;52.532;13.352;2023-03-05T04:30:43;2.60;99.90
41262;DHT22;29629;52.532;13.352;2023-03-05T04:33:10;2.50;99.90
41262;DHT22;29629;52.532;13.352;2023-03-05T04:35:37;2.50;99.90
41262;DHT22;29629;52.532;13.352;2023-03-05T04:38:04;2.40;99.90
41262;DHT22;29629;52.532;13.352;2023-03-05T04:40:32;2.50;99.90
41262;DHT22;29629;52.532;13.352;2023-03-05T04:42:59;2.50;99.90
41262;DHT22;29629;52.532;13.352;2023-03-05T04:45:25;2.50;99.90
41262;DHT22;29629;52.532;13.352;2023-03-05T04:47:52;2.50;99.90
41262;DHT22;29629;52.532;13.352;2023-03-05T04:50:19;2.50;99.90
41262;DHT22;29629;52.532;13.352;2023-03-05T04:52:45;2.50;99.90
41262;DHT22;29629;52.532;13.352;2023-03-05T04:55:13;2.40;99.90
41262;DHT22;29629;52.532;13.352;2023-03-05T04:57:41;2.50;99.90
41262;DHT22;29629;52.532;13.352;2023-03-05T05:00:09;2.40;99.90
41262;DHT22;29629;52.532;13.352;2023-03-05T05:02:38;2.40;99.90
41262;DHT22;29629;52.532;13.352;2023-03-05T05:05:05;2.40;99.90
41262;DHT22;29629;52.532;13.352;2023-03-05T05:07:32;2.40;99.90
41262;DHT22;29629;52.532;13.352;2023-03-05T05:09:58;2.40;99.90
41262;DHT22;29629;52.532;13.352;2023-03-05T05:12:26;2.50;99.90
41262;DHT22;29629;52.532;13.352;2023-03-05T05:14:54;2.50;99.90
41262;DHT22;29629;52.532;13.352;2023-03-05T05:17:21;2.50;99.90
41262;DHT22;29629;52.532;13.352;2023-03-05T05:19:48;2.50;99.90
41262;DHT22;29629;52.532;13.352;2023-03-05T05:22:15;2.40;99.90
41262;DHT22;29629;52.532;13.352;2023-03-05T05:24:41;2.30;99.90
41262;DHT22;29629;52.532;13.352;2023-03-05T05:27:08;2.30;99.90
41262;DHT22;29629;52.532;13.352;2023-03-05T05:29:35;2.30;99.90
41262;DHT22;29629;52.532;13.352;2023-03-05T05:32:05;2.20;99.90
41262;DHT22;29629;52.532;13.352;2023-03-05T05:34:32;2.20;99.90
41262;DHT22;29629;52.532;13.352;2023-03-05T05:36:59;2.30;99.90
41262;DHT22;29629;52.532;13.352;2023-03-05T05:39:25;2.30;99.90
41262;DHT22;29629;52.532;13.352;2023-03-05T05:41:52;2.30;99.90
41262;DHT22;29629;52.532;13.352;2023-03-05T05:44:19;2.40;99.90
41262;DHT22;29629;52.532;13.352;2023-03-05T05:46:45;2.30;99.90
41262;DHT22;29629;52.532;13.352;2023-03-05T05:49:14;2.20;99.90
41262;DHT22;29629;52.532;13.352;2023-03-05T05:51:40;2.30;99.90
41262;DHT22;29629;52.532;13.352;2023-03-05T05:54:08;2.30;99.90
41262;DHT22;29629;52.532;13.352;2023-03-05T05:56:35;2.30;99.90
41262;DHT22;29629;52.532;13.352;2023-03-05T05:59:02;2.40;99.90
41262;DHT22;29629;52.532;13.352;2023-03-05T06:01:29;2.50;99.90
41262;DHT22;29629;52.532;13.352;2023-03-05T06:03:56;2.50;99.90
41262;DHT22;29629;52.532;13.352;2023-03-05T06:06:25;2.50;99.90
41262;DHT22;29629;52.532;13.352;2023-03-05T06:08:52;2.50;99.90
41262;DHT22;29629;52.532;13.352;2023-03-05T06:11:19;2.50;99.90
41262;DHT22;29629;52.532;13.352;2023-03-05T06:13:46;2.50;99.90
41262;DHT22;29629;52.532;13.352;2023-03-05T06:16:13;2.50;99.90
41262;DHT22;29629;52.532;13.352;2023-03-05T06:18:40;2.60;99.90
41262;DHT22;29629;52.532;13.352;2023-03-05T06:21:08;2.60;99.90
41262;DHT22;29629;52.532;13.352;2023-03-05T06:23:37;2.60;99.90
41262;DHT22;29629;52.532;13.352;2023-03-05T06:26:05;2.70;99.90
41262;DHT22;29629;52.532;13.352;2023-03-05T06:28:32;2.70;99.90
41262;DHT22;29629;52.532;13.352;2023-03-05T06:30:59;2.80;99.90
41262;DHT22;29629;52.532;13.352;2023-03-05T06:33:26;2.70;99.90
41262;DHT22;29629;52.532;13.352;2023-03-05T06:35:53;2.80;99.90
41262;DHT22;29629;52.532;13.352;2023-03-05T06:38:20;3.00;99.90
41262;DHT22;29629;52.532;13.352;2023-03-05T06:40:48;3.00;99.90
41262;DHT22;29629;52.532;13.352;2023-03-05T06:43:15;3.00;99.90
41262;DHT22;29629;52.532;13.352;2023-03-05T06:45:42;3.10;99.90
41262;DHT22;29629;52.532;13.352;2023-03-05T06:48:08;3.30;99.90
41262;DHT22;29629;52.532;13.352;2023-03-05T06:50:36;3.30;99.90
41262;DHT22;29629;52.532;13.352;2023-03-05T06:53:02;3.20;99.90
41262;DHT22;29629;52.532;13.352;2023-03-05T06:55:29;3.30;99.90
41262;DHT22;29629;52.532;13.352;2023-03-05T06:58:06;3.20;99.90
41262;DHT22;29629;52.532;13.352;2023-03-05T07:00:33;3.20;99.90
41262;DHT22;29629;52.532;13.352;2023-03-05T07:03:00;3.20;99.90
41262;DHT22;29629;52.532;13.352;2023-03-05T07:05:26;3.30;99.90
41262;DHT22;29629;52.532;13.352;2023-03-05T07:07:53;3.30;99.90
41262;DHT22;29629;52.532;13.352;2023-03-05T07:10:20;3.40;99.90
41262;DHT22;29629;52.532;13.352;2023-03-05T07:12:47;3.30;99.90
41262;DHT22;29629;52.532;13.352;2023-03-05T07:15:15;3.50;99.90
41262;DHT22;29629;52.532;13.352;2023-03-05T07:17:41;3.70;99.90
41262;DHT22;29629;52.532;13.352;2023-03-05T07:20:08;3.70;99.90
41262;DHT22;29629;52.532;13.352;2023-03-05T07:22:35;3.50;99.90
41262;DHT22;29629;52.532;13.352;2023-03-05T07:25:03;3.50;99.90
41262;DHT22;29629;52.532;13.352;2023-03-05T07:27:29;3.50;99.90
41262;DHT22;29629;52.532;13.352;2023-03-05T07:29:59;3.50;99.90
41262;DHT22;29629;52.532;13.352;2023-03-05T07:32:27;3.50;99.90
41262;DHT22;29629;52.532;13.352;2023-03-05T07:34:54;3.50;99.90
41262;DHT22;29629;52.532;13.352;2023-03-05T07:37:20;3.60;99.90
41262;DHT22;29629;52.532;13.352;2023-03-05T07:39:47;3.50;99.90
41262;DHT22;29629;52.532;13.352;2023-03-05T07:42:14;3.50;99.90
41262;DHT22;29629;52.532;13.352;2023-03-05T07:44:41;3.60;99.90
41262;DHT22;29629;52.532;13.352;2023-03-05T07:47:07;3.70;99.90
41262;DHT22;29629;52.532;13.352;2023-03-05T07:49:35;3.70;99.90
41262;DHT22;29629;52.532;13.352;2023-03-05T07:52:04;3.70;99.90
41262;DHT22;29629;52.532;13.352;2023-03-05T07:54:31;3.70;99.90
41262;DHT22;29629;52.532;13.352;2023-03-05T07:57:01;3.70;99.90
41262;DHT22;29629;52.532;13.352;2023-03-05T07:59:28;3.60;99.90
41262;DHT22;29629;52.532;13.352;2023-03-05T08:01:55;3.80;99.90
41262;DHT22;29629;52.532;13.352;2023-03-05T08:04:22;3.90;99.90
41262;DHT22;29629;52.532;13.352;2023-03-05T08:06:50;4.00;99.90
41262;DHT22;29629;52.532;13.352;2023-03-05T08:09:16;3.90;99.90
41262;DHT22;29629;52.532;13.352;2023-03-05T08:11:44;4.10;99.90
41262;DHT22;29629;52.532;13.352;2023-03-05T08:14:11;4.30;99.90
41262;DHT22;29629;52.532;13.352;2023-03-05T08:16:38;4.40;99.90
41262;DHT22;29629;52.532;13.352;2023-03-05T08:19:05;4.50;99.90
41262;DHT22;29629;52.532;13.352;2023-03-05T08:21:32;4.90;99.90
41262;DHT22;29629;52.532;13.352;2023-03-05T08:24:02;4.90;99.90
41262;DHT22;29629;52.532;13.352;2023-03-05T08:26:29;5.00;99.90
41262;DHT22;29629;52.532;13.352;2023-03-05T08:28:57;5.40;99.90
41262;DHT22;29629;52.532;13.352;2023-03-05T08:31:24;5.30;99.90
41262;DHT22;29629;52.532;13.352;2023-03-05T08:33:53;5.40;99.90
41262;DHT22;29629;52.532;13.352;2023-03-05T08:36:20;5.50;99.90
41262;DHT22;29629;52.532;13.352;2023-03-05T08:38:46;5.30;99.90
41262;DHT22;29629;52.532;13.352;2023-03-05T08:41:16;5.40;99.90
41262;DHT22;29629;52.532;13.352;2023-03-05T08:43:43;5.50;99.90
41262;DHT22;29629;52.532;13.352;2023-03-05T08:46:10;5.70;99.90
41262;DHT22;29629;52.532;13.352;2023-03-05T08:48:37;5.70;99.90
41262;DHT22;29629;52.532;13.352;2023-03-05T08:51:04;5.80;99.90
41262;DHT22;29629;52.532;13.352;2023-03-05T08:53:31;5.60;99.90
41262;DHT22;29629;52.532;13.352;2023-03-05T08:55:58;5.40;99.90
41262;DHT22;29629;52.532;13.352;2023-03-05T08:58:26;5.90;99.90
41262;DHT22;29629;52.532;13.352;2023-03-05T09:00:53;5.90;99.90
41262;DHT22;29629;52.532;13.352;2023-03-05T09:03:20;5.80;99.90
41262;DHT22;29629;52.532;13.352;2023-03-05T09:05:46;5.80;99.90
41262;DHT22;29629;52.532;13.352;2023-03-05T09:08:13;5.90;99.90
41262;DHT22;29629;52.532;13.352;2023-03-05T09:10:40;6.30;99.90
41262;DHT22;29629;52.532;13.352;2023-03-05T09:13:07;6.20;99.90
41262;DHT22;29629;52.532;13.352;2023-03-05T09:15:35;6.20;99.90
41262;DHT22;29629;52.532;13.352;2023-03-05T09:18:02;6.00;99.90
41262;DHT22;29629;52.532;13.352;2023-03-05T09:20:29;6.10;99.90
41262;DHT22;29629;52.532;13.352;2023-03-05T09:22:55;6.50;99.90
41262;DHT22;29629;52.532;13.352;2023-03-05T09:25:22;7.10;99.90
41262;DHT22;29629;52.532;13.352;2023-03-05T09:27:49;6.70;99.90
41262;DHT22;29629;52.532;13.352;2023-03-05T09:30:16;5.60;99.90
41262;DHT22;29629;52.532;13.352;2023-03-05T09:32:44;5.20;99.90
41262;DHT22;29629;52.532;13.352;2023-03-05T09:35:11;5.40;99.90
41262;DHT22;29629;52.532;13.352;2023-03-05T09:37:38;5.60;99.90
41262;DHT22;29629;52.532;13.352;2023-03-05T09:40:05;5.40;99.90
41262;DHT22;29629;52.532;13.352;2023-03-05T09:42:40;5.20;99.90
41262;DHT22;29629;52.532;13.352;2023-03-05T09:45:12;5.10;99.90
41262;DHT22;29629;52.532;13.352;2023-03-05T09:47:50;5.50;99.90
41262;DHT22;29629;52.532;13.352;2023-03-05T09:50:22;5.40;99.90
41262;DHT22;29629;52.532;13.352;2023-03-05T09:52:56;5.80;99.90
41262;DHT22;29629;52.532;13.352;2023-03-05T09:55:26;5.80;99.90
41262;DHT22;29629;52.532;13.352;2023-03-05T09:57:55;5.30;99.90
41262;DHT22;29629;52.532;13.352;2023-03-05T10:00:25;5.50;99.90
41262;DHT22;29629;52.532;13.352;2023-03-05T10:02:56;5.40;99.90
41262;DHT22;29629;52.532;13.352;2023-03-05T10:05:26;5.40;99.90
41262;DHT22;29629;52.532;13.352;2023-03-05T10:07:56;5.40;99.90
41262;DHT22;29629;52.532;13.352;2023-03-05T10:10:26;5.30;99.90
41262;DHT22;29629;52.532;13.352;2023-03-05T10:12:54;5.30;99.90
41262;DHT22;29629;52.532;13.352;2023-03-05T10:15:23;5.30;99.90
41262;DHT22;29629;52.532;13.352;2023-03-05T10:17:55;5.30;99.90
41262;DHT22;29629;52.532;13.352;2023-03-05T10:20:37;5.30;99.90
41262;DHT22;29629;52.532;13.352;2023-03-05T10:23:19;5.30;99.90
41262;DHT22;29629;52.532;13.352;2023-03-05T10:25:51;5.40;99.90
41262;DHT22;29629;52.532;13.352;2023-03-05T10:28:19;5.30;99.90
41262;DHT22;29629;52.532;13.352;2023-03-05T10:30:51;5.20;99.90
41262;DHT22;29629;52.532;13.352;2023-03-05T10:33:22;5.20;99.90
41262;DHT22;29629;52.532;13.352;2023-03-05T10:35:54;4.90;99.90
41262;DHT22;29629;52.532;13.352;2023-03-05T10:38:28;4.80;99.90
41262;DHT22;29629;52.532;13.352;2023-03-05T10:40:59;4.70;99.90
41262;DHT22;29629;52.532;13.352;2023-03-05T10:43:30;4.50;99.90
41262;DHT22;29629;52.532;13.352;2023-03-05T10:46:02;4.60;99.90
41262;DHT22;29629;52.532;13.352;2023-03-05T10:48:31;4.90;99.90
41262;DHT22;29629;52.532;13.352;2023-03-05T10:51:02;4.80;99.90
41262;DHT22;29629;52.532;13.352;2023-03-05T10:53:31;4.50;99.90
41262;DHT22;29629;52.532;13.352;2023-03-05T10:56:00;4.70;99.90
41262;DHT22;29629;52.532;13.352;2023-03-05T10:58:27;4.70;99.90
41262;DHT22;29629;52.532;13.352;2023-03-05T11:00:57;4.80;99.90
41262;DHT22;29629;52.532;13.352;2023-03-05T11:03:24;4.70;99.90
41262;DHT22;29629;52.532;13.352;2023-03-05T11:05:58;4.90;99.90
41262;DHT22;29629;52.532;13.352;2023-03-05T11:08:28;5.00;99.90
41262;DHT22;29629;52.532;13.352;2023-03-05T11:11:02;5.00;99.90
41262;DHT22;29629;52.532;13.352;2023-03-05T11:13:30;4.70;99.90
41262;DHT22;29629;52.532;13.352;2023-03-05T11:16:03;4.80;99.90
41262;DHT22;29629;52.532;13.352;2023-03-05T11:18:31;5.00;99.90
41262;DHT22;29629;52.532;13.352;2023-03-05T11:21:05;5.00;99.90
41262;DHT22;29629;52.532;13.352;2023-03-05T11:23:34;5.10;99.90
41262;DHT22;29629;52.532;13.352;2023-03-05T11:26:01;4.80;99.90
41262;DHT22;29629;52.532;13.352;2023-03-05T11:28:30;4.90;99.90
41262;DHT22;29629;52.532;13.352;2023-03-05T11:30:59;5.20;99.90
41262;DHT22;29629;52.532;13.352;2023-03-05T11:33:26;5.40;99.90
41262;DHT22;29629;52.532;13.352;2023-03-05T11:36:08;5.10;99.90
41262;DHT22;29629;52.532;13.352;2023-03-05T11:38:43;5.40;99.90
41262;DHT22;29629;52.532;13.352;2023-03-05T11:41:10;5.20;99.90
41262;DHT22;29629;52.532;13.352;2023-03-05T11:43:37;5.40;99.90
41262;DHT22;29629;52.532;13.352;2023-03-05T11:46:05;5.70;99.90
41262;DHT22;29629;52.532;13.352;2023-03-05T11:48:36;5.80;99.90
41262;DHT22;29629;52.532;13.352;2023-03-05T11:51:06;5.90;99.90
41262;DHT22;29629;52.532;13.352;2023-03-05T11:53:34;5.80;99.90
41262;DHT22;29629;52.532;13.352;2023-03-05T11:56:04;5.90;99.90
41262;DHT22;29629;52.532;13.352;2023-03-05T11:58:38;5.80;99.90
41262;DHT22;29629;52.532;13.352;2023-03-05T12:01:07;5.60;99.90
41262;DHT22;29629;52.532;13.352;2023-03-05T12:03:40;5.50;99.90
41262;DHT22;29629;52.532;13.352;2023-03-05T12:06:09;5.40;99.90
41262;DHT22;29629;52.532;13.352;2023-03-05T12:08:43;5.20;99.90
41262;DHT22;29629;52.532;13.352;2023-03-05T12:11:13;5.50;99.90
41262;DHT22;29629;52.532;13.352;2023-03-05T12:13:42;5.40;99.90
41262;DHT22;29629;52.532;13.352;2023-03-05T12:16:15;5.60;99.90
41262;DHT22;29629;52.532;13.352;2023-03-05T12:18:49;5.90;99.90
41262;DHT22;29629;52.532;13.352;2023-03-05T12:21:22;6.30;99.90
41262;DHT22;29629;52.532;13.352;2023-03-05T12:23:52;6.30;99.90
41262;DHT22;29629;52.532;13.352;2023-03-05T12:26:33;6.50;99.90
41262;DHT22;29629;52.532;13.352;2023-03-05T12:29:26;6.60;99.90
41262;DHT22;29629;52.532;13.352;2023-03-05T12:31:53;7.10;99.90
41262;DHT22;29629;52.532;13.352;2023-03-05T12:34:41;7.70;99.90
41262;DHT22;29629;52.532;13.352;2023-03-05T12:37:11;7.40;99.90
41262;DHT22;29629;52.532;13.352;2023-03-05T12:39:45;7.30;99.90
41262;DHT22;29629;52.532;13.352;2023-03-05T12:42:39;6.70;99.90
41262;DHT22;29629;52.532;13.352;2023-03-05T12:45:24;6.80;99.90
41262;DHT22;29629;52.532;13.352;2023-03-05T12:50:46;6.10;99.90
41262;DHT22;29629;52.532;13.352;2023-03-05T12:53:14;6.10;99.90
41262;DHT22;29629;52.532;13.352;2023-03-05T12:55:44;6.00;99.90
41262;DHT22;29629;52.532;13.352;2023-03-05T12:58:16;6.20;99.90
41262;DHT22;29629;52.532;13.352;2023-03-05T13:00:45;6.10;99.90
41262;DHT22;29629;52.532;13.352;2023-03-05T13:03:14;6.00;99.90
41262;DHT22;29629;52.532;13.352;2023-03-05T13:05:46;6.20;99.90
41262;DHT22;29629;52.532;13.352;2023-03-05T13:08:19;6.20;99.90
41262;DHT22;29629;52.532;13.352;2023-03-05T13:10:49;6.20;99.90
41262;DHT22;29629;52.532;13.352;2023-03-05T13:13:17;6.10;99.90
41262;DHT22;29629;52.532;13.352;2023-03-05T13:15:46;6.10;99.90
41262;DHT22;29629;52.532;13.352;2023-03-05T13:18:15;6.10;99.90
41262;DHT22;29629;52.532;13.352;2023-03-05T13:20:44;6.10;99.90
41262;DHT22;29629;52.532;13.352;2023-03-05T13:23:19;6.00;99.90
41262;DHT22;29629;52.532;13.352;2023-03-05T13:26:00;6.40;99.90
41262;DHT22;29629;52.532;13.352;2023-03-05T13:28:27;6.90;99.90
41262;DHT22;29629;52.532;13.352;2023-03-05T13:30:57;6.50;99.90
41262;DHT22;29629;52.532;13.352;2023-03-05T13:33:25;6.30;99.90
41262;DHT22;29629;52.532;13.352;2023-03-05T13:35:52;6.30;99.90
41262;DHT22;29629;52.532;13.352;2023-03-05T13:38:23;6.80;99.90
41262;DHT22;29629;52.532;13.352;2023-03-05T13:41:07;6.60;99.90
41262;DHT22;29629;52.532;13.352;2023-03-05T13:43:41;6.90;99.90
41262;DHT22;29629;52.532;13.352;2023-03-05T13:46:11;6.70;99.90
41262;DHT22;29629;52.532;13.352;2023-03-05T13:48:37;6.60;99.90
41262;DHT22;29629;52.532;13.352;2023-03-05T13:51:06;6.70;99.90
41262;DHT22;29629;52.532;13.352;2023-03-05T13:53:34;6.40;99.90
41262;DHT22;29629;52.532;13.352;2023-03-05T13:56:01;6.10;99.90
41262;DHT22;29629;52.532;13.352;2023-03-05T14:01:27;5.90;99.90
41262;DHT22;29629;52.532;13.352;2023-03-05T14:03:55;5.70;99.90
41262;DHT22;29629;52.532;13.352;2023-03-05T14:06:24;5.60;99.90
41262;DHT22;29629;52.532;13.352;2023-03-05T14:08:53;5.70;99.90
41262;DHT22;29629;52.532;13.352;2023-03-05T14:11:20;5.60;99.90
41262;DHT22;29629;52.532;13.352;2023-03-05T14:13:47;5.40;99.90
41262;DHT22;29629;52.532;13.352;2023-03-05T14:16:15;5.20;99.90
41262;DHT22;29629;52.532;13.352;2023-03-05T14:18:53;5.40;99.90
41262;DHT22;29629;52.532;13.352;2023-03-05T14:21:21;5.30;99.90
41262;DHT22;29629;52.532;13.352;2023-03-05T14:23:48;5.30;99.90
41262;DHT22;29629;52.532;13.352;2023-03-05T14:26:17;5.30;99.90
41262;DHT22;29629;52.532;13.352;2023-03-05T14:28:48;5.40;99.90
41262;DHT22;29629;52.532;13.352;2023-03-05T14:31:16;5.10;99.90
41262;DHT22;29629;52.532;13.352;2023-03-05T14:33:43;5.10;99.90
41262;DHT22;29629;52.532;13.352;2023-03-05T14:36:12;5.30;99.90
41262;DHT22;29629;52.532;13.352;2023-03-05T14:38:39;5.30;99.90
41262;DHT22;29629;52.532;13.352;2023-03-05T14:44:12;5.10;99.90
41262;DHT22;29629;52.532;13.352;2023-03-05T14:46:39;5.20;99.90
41262;DHT22;29629;52.532;13.352;2023-03-05T14:49:06;5.20;99.90
41262;DHT22;29629;52.532;13.352;2023-03-05T14:51:36;5.10;99.90
41262;DHT22;29629;52.532;13.352;2023-03-05T14:54:03;5.20;99.90
41262;DHT22;29629;52.532;13.352;2023-03-05T14:56:30;5.30;99.90
41262;DHT22;29629;52.532;13.352;2023-03-05T14:58:58;5.30;99.90
41262;DHT22;29629;52.532;13.352;2023-03-05T15:01:24;5.30;99.90
41262;DHT22;29629;52.532;13.352;2023-03-05T15:03:51;5.30;99.90
41262;DHT22;29629;52.532;13.352;2023-03-05T15:06:18;5.10;99.90
41262;DHT22;29629;52.532;13.352;2023-03-05T15:08:47;5.10;99.90
41262;DHT22;29629;52.532;13.352;2023-03-05T15:11:14;5.10;99.90
41262;DHT22;29629;52.532;13.352;2023-03-05T15:13:41;5.10;99.90
41262;DHT22;29629;52.532;13.352;2023-03-05T15:16:10;5.10;99.90
41262;DHT22;29629;52.532;13.352;2023-03-05T15:18:38;5.20;99.90
41262;DHT22;29629;52.532;13.352;2023-03-05T15:21:05;5.10;99.90
41262;DHT22;29629;52.532;13.352;2023-03-05T15:23:32;5.10;99.90
41262;DHT22;29629;52.532;13.352;2023-03-05T15:26:04;5.10;99.90
41262;DHT22;29629;52.532;13.352;2023-03-05T15:28:32;5.10;99.90
41262;DHT22;29629;52.532;13.352;2023-03-05T15:30:59;5.00;99.90
41262;DHT22;29629;52.532;13.352;2023-03-05T15:33:26;4.90;99.90
41262;DHT22;29629;52.532;13.352;2023-03-05T15:35:53;4.90;99.90
41262;DHT22;29629;52.532;13.352;2023-03-05T15:38:20;4.90;99.90
41262;DHT22;29629;52.532;13.352;2023-03-05T15:40:46;4.80;99.90
41262;DHT22;29629;52.532;13.352;2023-03-05T15:43:15;4.80;99.90
41262;DHT22;29629;52.532;13.352;2023-03-05T15:45:41;4.80;99.90
41262;DHT22;29629;52.532;13.352;2023-03-05T15:48:08;4.60;99.90